sensor_id;sensor_type;location;lat;lon;timestamp;pressure;altitude;pressure_sealevel;temperature;humidity
59367;BME280;45163;47.690;11.770;2023-08-30T00:00:40;92816.59;;;11.59;100.00
59367;BME280;45163;47.690;11.770;2023-08-30T00:03:13;92812.78;;;11.57;100.00
59367;BME280;45163;47.690;11.770;2023-08-30T00:05:40;92812.50;;;11.55;100.00
59367;BME280;45163;47.690;11.770;2023-08-30T00:08:06;92806.56;;;11.56;100.00
59367;BME280;45163;47.690;11.770;2023-08-30T00:10:32;92801.56;;;11.55;100.00
59367;BME280;45163;47.690;11.770;2023-08-30T00:12:58;92806.56;;;11.56;100.00
59367;BME280;45163;47.690;11.770;2023-08-30T00:15:24;92809.00;;;11.54;100.00
59367;BME280;45163;47.690;11.770;2023-08-30T00:17:50;92807.03;;;11.55;100.00
59367;BME280;45163;47.690;11.770;2023-08-30T00:20:20;92809.63;;;11.58;100.00
59367;BME280;45163;47.690;11.770;2023-08-30T00:22:47;92813.56;;;11.57;100.00
59367;BME280;45163;47.690;11.770;2023-08-30T00:25:15;92810.66;;;11.52;100.00
59367;BME280;45163;47.690;11.770;2023-08-30T00:27:42;92815.38;;;11.51;100.00
59367;BME280;45163;47.690;11.770;2023-08-30T00:30:08;92812.31;;;11.49;100.00
59367;BME280;45163;47.690;11.770;2023-08-30T00:32:35;92818.41;;;11.53;100.00
59367;BME280;45163;47.690;11.770;2023-08-30T00:35:02;92812.50;;;11.55;100.00
59367;BME280;45163;47.690;11.770;2023-08-30T00:37:28;92812.94;;;11.53;100.00
59367;BME280;45163;47.690;11.770;2023-08-30T00:39:54;92812.50;;;11.55;100.00
59367;BME280;45163;47.690;11.770;2023-08-30T00:42:20;92815.66;;;11.53;100.00
59367;BME280;45163;47.690;11.770;2023-08-30T00:44:46;92811.56;;;11.58;100.00
59367;BME280;45163;47.690;11.770;2023-08-30T00:47:12;92805.06;;;11.55;100.00
59367;BME280;45163;47.690;11.770;2023-08-30T00:49:38;92811.00;;;11.54;100.00
59367;BME280;45163;47.690;11.770;2023-08-30T00:52:08;92805.53;;;11.54;100.00
59367;BME280;45163;47.690;11.770;2023-08-30T00:54:35;92810.78;;;11.39;100.00
59367;BME280;45163;47.690;11.770;2023-08-30T00:57:02;92809.56;;;11.40;100.00
59367;BME280;45163;47.690;11.770;2023-08-30T00:59:29;92813.38;;;11.42;100.00
59367;BME280;45163;47.690;11.770;2023-08-30T01:01:59;92815.50;;;11.38;100.00
59367;BME280;45163;47.690;11.770;2023-08-30T01:04:25;92806.69;;;11.34;100.00
59367;BME280;45163;47.690;11.770;2023-08-30T01:06:51;92803.06;;;11.46;100.00
59367;BME280;45163;47.690;11.770;2023-08-30T01:09:18;92806.28;;;11.54;100.00
59367;BME280;45163;47.690;11.770;2023-08-30T01:12:13;92806.72;;;11.53;100.00
59367;BME280;45163;47.690;11.770;2023-08-30T01:15:02;92801.38;;;11.49;100.00
59367;BME280;45163;47.690;11.770;2023-08-30T01:17:32;92809.16;;;11.51;100.00
59367;BME280;45163;47.690;11.770;2023-08-30T01:19:59;92806.41;;;11.51;100.00
59367;BME280;45163;47.690;11.770;2023-08-30T01:22:40;92802.16;;;11.50;100.00
59367;BME280;45163;47.690;11.770;2023-08-30T01:25:20;92799.13;;;11.47;100.00
59367;BME280;45163;47.690;11.770;2023-08-30T01:27:51;92798.91;;;11.33;100.00
59367;BME280;45163;47.690;11.770;2023-08-30T01:30:18;92792.25;;;11.34;100.00
59367;BME280;45163;47.690;11.770;2023-08-30T01:32:46;92797.53;;;11.28;100.00
59367;BME280;45163;47.690;11.770;2023-08-30T01:35:12;92796.38;;;11.38;100.00
59367;BME280;45163;47.690;11.770;2023-08-30T01:37:44;92787.56;;;11.43;100.00
59367;BME280;45163;47.690;11.770;2023-08-30T01:40:13;92796.84;;;11.46;100.00
59367;BME280;45163;47.690;11.770;2023-08-30T01:42:42;92805.63;;;11.41;100.00
59367;BME280;45163;47.690;11.770;2023-08-30T01:45:10;92800.63;;;11.39;100.00
59367;BME280;45163;47.690;11.770;2023-08-30T01:47:39;92800.72;;;11.27;100.00
59367;BME280;45163;47.690;11.770;2023-08-30T01:50:07;92798.16;;;11.32;100.00
59367;BME280;45163;47.690;11.770;2023-08-30T01:52:33;92806.41;;;11.41;100.00
59367;BME280;45163;47.690;11.770;2023-08-30T01:55:02;92799.72;;;11.42;100.00
59367;BME280;45163;47.690;11.770;2023-08-30T01:57:28;92794.25;;;11.42;100.00
59367;BME280;45163;47.690;11.770;2023-08-30T01:59:54;92792.28;;;11.43;100.00
59367;BME280;45163;47.690;11.770;2023-08-30T02:02:20;92798.50;;;11.53;100.00
59367;BME280;45163;47.690;11.770;2023-08-30T02:04:46;92793.81;;;11.53;100.00
59367;BME280;45163;47.690;11.770;2023-08-30T02:07:25;92792.00;;;11.50;100.00
59367;BME280;45163;47.690;11.770;2023-08-30T02:09:58;92786.53;;;11.50;100.00
59367;BME280;45163;47.690;11.770;2023-08-30T02:12:41;92793.03;;;11.53;100.00
59367;BME280;45163;47.690;11.770;2023-08-30T02:15:09;92796.09;;;11.55;100.00
59367;BME280;45163;47.690;11.770;2023-08-30T02:17:37;92793.34;;;11.45;100.00
59367;BME280;45163;47.690;11.770;2023-08-30T02:20:05;92787.41;;;11.29;100.00
59367;BME280;45163;47.690;11.770;2023-08-30T02:22:32;92795.59;;;11.29;100.00
59367;BME280;45163;47.690;11.770;2023-08-30T02:24:59;92784.34;;;11.27;100.00
59367;BME280;45163;47.690;11.770;2023-08-30T02:27:31;92786.31;;;11.26;100.00
59367;BME280;45163;47.690;11.770;2023-08-30T02:29:57;92787.53;;;11.25;100.00
59367;BME280;45163;47.690;11.770;2023-08-30T02:32:23;92789.34;;;11.28;100.00
59367;BME280;45163;47.690;11.770;2023-08-30T02:34:51;92795.72;;;11.25;100.00
59367;BME280;45163;47.690;11.770;2023-08-30T02:37:17;92792.06;;;11.19;100.00
59367;BME280;45163;47.690;11.770;2023-08-30T02:39:43;92790.66;;;11.05;100.00
59367;BME280;45163;47.690;11.770;2023-08-30T02:42:09;92795.53;;;11.10;100.00
59367;BME280;45163;47.690;11.770;2023-08-30T02:44:35;92788.69;;;11.15;100.00
59367;BME280;45163;47.690;11.770;2023-08-30T02:47:01;92795.22;;;11.08;100.00
59367;BME280;45163;47.690;11.770;2023-08-30T02:49:27;92797.78;;;11.12;100.00
59367;BME280;45163;47.690;11.770;2023-08-30T02:51:53;92797.25;;;11.26;100.00
59367;BME280;45163;47.690;11.770;2023-08-30T02:54:19;92798.47;;;11.25;100.00
59367;BME280;45163;47.690;11.770;2023-08-30T02:56:45;92796.03;;;11.27;100.00
59367;BME280;45163;47.690;11.770;2023-08-30T02:59:11;92798.28;;;11.19;100.00
59367;BME280;45163;47.690;11.770;2023-08-30T03:01:38;92796.31;;;11.20;100.00
59367;BME280;45163;47.690;11.770;2023-08-30T03:04:05;92795.53;;;11.19;100.00
59367;BME280;45163;47.690;11.770;2023-08-30T03:06:35;92794.03;;;11.18;100.00
59367;BME280;45163;47.690;11.770;2023-08-30T03:09:02;92795.53;;;11.10;100.00
59367;BME280;45163;47.690;11.770;2023-08-30T03:11:32;92785.69;;;11.22;100.00
59367;BME280;45163;47.690;11.770;2023-08-30T03:13:58;92789.50;;;11.25;100.00
59367;BME280;45163;47.690;11.770;2023-08-30T03:16:24;92787.06;;;11.17;100.00
59367;BME280;45163;47.690;11.770;2023-08-30T03:18:50;92787.53;;;11.25;100.00
59367;BME280;45163;47.690;11.770;2023-08-30T03:21:16;92789.19;;;11.22;100.00
59367;BME280;45163;47.690;11.770;2023-08-30T03:23:42;92788.09;;;11.11;100.00
59367;BME280;45163;47.690;11.770;2023-08-30T03:26:10;92788.56;;;11.18;100.00
59367;BME280;45163;47.690;11.770;2023-08-30T03:28:36;92796.59;;;11.13;100.00
59367;BME280;45163;47.690;11.770;2023-08-30T03:31:11;92790.13;;;11.29;100.00
59367;BME280;45163;47.690;11.770;2023-08-30T03:33:37;92790.56;;;11.27;100.00
59367;BME280;45163;47.690;11.770;2023-08-30T03:36:04;92785.41;;;11.29;100.00
59367;BME280;45163;47.690;11.770;2023-08-30T03:38:30;92789.53;;;11.34;100.00
59367;BME280;45163;47.690;11.770;2023-08-30T03:40:55;92788.44;;;11.31;100.00
59367;BME280;45163;47.690;11.770;2023-08-30T03:43:21;92790.72;;;11.33;100.00
59367;BME280;45163;47.690;11.770;2023-08-30T03:45:48;92786.19;;;11.30;100.00
59367;BME280;45163;47.690;11.770;2023-08-30T03:48:14;92784.19;;;11.30;100.00
59367;BME280;45163;47.690;11.770;2023-08-30T03:50:40;92785.25;;;11.23;100.00
59367;BME280;45163;47.690;11.770;2023-08-30T03:53:06;92778.13;;;11.26;100.00
59367;BME280;45163;47.690;11.770;2023-08-30T03:55:31;92789.06;;;11.26;100.00
59367;BME280;45163;47.690;11.770;2023-08-30T03:57:57;92780.72;;;11.30;100.00
59367;BME280;45163;47.690;11.770;2023-08-30T04:00:23;92786.00;;;11.24;100.00
59367;BME280;45163;47.690;11.770;2023-08-30T04:02:49;92789.78;;;11.17;100.00
59367;BME280;45163;47.690;11.770;2023-08-30T04:05:15;92789.47;;;11.15;100.00
59367;BME280;45163;47.690;11.770;2023-08-30T04:07:41;92793.56;;;11.20;100.00
59367;BME280;45163;47.690;11.770;2023-08-30T04:10:07;92791.63;;;11.20;100.00
59367;BME280;45163;47.690;11.770;2023-08-30T04:12:34;92789.47;;;11.15;100.00
59367;BME280;45163;47.690;11.770;2023-08-30T04:15:01;92789.66;;;11.21;100.00
59367;BME280;45163;47.690;11.770;2023-08-30T04:17:28;92789.66;;;11.21;100.00
59367;BME280;45163;47.690;11.770;2023-08-30T04:19:54;92794.66;;;11.22;100.00
59367;BME280;45163;47.690;11.770;2023-08-30T04:22:20;92792.94;;;11.16;100.00
59367;BME280;45163;47.690;11.770;2023-08-30T04:24:46;92784.75;;;11.16;100.00
59367;BME280;45163;47.690;11.770;2023-08-30T04:27:12;92786.16;;;11.20;100.00
59367;BME280;45163;47.690;11.770;2023-08-30T04:29:38;92783.69;;;11.13;100.00
59367;BME280;45163;47.690;11.770;2023-08-30T04:32:04;92785.38;;;11.20;100.00
59367;BME280;45163;47.690;11.770;2023-08-30T04:34:31;92779.78;;;11.23;100.00
59367;BME280;45163;47.690;11.770;2023-08-30T04:36:57;92787.22;;;11.23;100.00
59367;BME280;45163;47.690;11.770;2023-08-30T04:39:23;92786.91;;;11.21;100.00
59367;BME280;45163;47.690;11.770;2023-08-30T04:41:49;92788.59;;;11.28;100.00
59367;BME280;45163;47.690;11.770;2023-08-30T04:44:15;92790.28;;;11.25;100.00
59367;BME280;45163;47.690;11.770;2023-08-30T04:46:43;92776.47;;;11.29;100.00
59367;BME280;45163;47.690;11.770;2023-08-30T04:49:09;92785.25;;;11.23;100.00
59367;BME280;45163;47.690;11.770;2023-08-30T04:51:35;92784.47;;;11.23;100.00
59367;BME280;45163;47.690;11.770;2023-08-30T04:54:00;92787.97;;;11.23;100.00
59367;BME280;45163;47.690;11.770;2023-08-30T04:56:26;92790.41;;;11.21;100.00
59367;BME280;45163;47.690;11.770;2023-08-30T04:58:52;92782.97;;;11.22;100.00
59367;BME280;45163;47.690;11.770;2023-08-30T05:01:18;92778.72;;;11.21;100.00
59367;BME280;45163;47.690;11.770;2023-08-30T05:03:44;92789.31;;;11.19;100.00
59367;BME280;45163;47.690;11.770;2023-08-30T05:06:10;92790.13;;;11.29;100.00
59367;BME280;45163;47.690;11.770;2023-08-30T05:08:39;92788.91;;;11.30;100.00
59367;BME280;45163;47.690;11.770;2023-08-30T05:11:05;92783.00;;;11.31;100.00
59367;BME280;45163;47.690;11.770;2023-08-30T05:13:31;92786.94;;;11.30;100.00
59367;BME280;45163;47.690;11.770;2023-08-30T05:15:57;92792.25;;;11.34;100.00
59367;BME280;45163;47.690;11.770;2023-08-30T05:18:23;92795.00;;;11.34;100.00
59367;BME280;45163;47.690;11.770;2023-08-30T05:20:49;92792.13;;;11.37;100.00
59367;BME280;45163;47.690;11.770;2023-08-30T05:23:15;92792.41;;;11.39;100.00
59367;BME280;45163;47.690;11.770;2023-08-30T05:25:41;92794.69;;;11.41;100.00
59367;BME280;45163;47.690;11.770;2023-08-30T05:28:07;92799.84;;;11.39;100.00
59367;BME280;45163;47.690;11.770;2023-08-30T05:30:33;92797.72;;;11.34;100.00
59367;BME280;45163;47.690;11.770;2023-08-30T05:32:59;92802.59;;;11.39;100.00
59367;BME280;45163;47.690;11.770;2023-08-30T05:35:25;92801.50;;;11.36;100.00
59367;BME280;45163;47.690;11.770;2023-08-30T05:37:51;92798.47;;;11.34;100.00
59367;BME280;45163;47.690;11.770;2023-08-30T05:40:17;92800.00;;;11.35;100.00
59367;BME280;45163;47.690;11.770;2023-08-30T05:42:43;92798.63;;;11.40;100.00
59367;BME280;45163;47.690;11.770;2023-08-30T05:45:11;92801.06;;;11.38;100.00
59367;BME280;45163;47.690;11.770;2023-08-30T05:47:37;92801.50;;;11.36;100.00
59367;BME280;45163;47.690;11.770;2023-08-30T05:50:03;92805.00;;;11.37;100.00
59367;BME280;45163;47.690;11.770;2023-08-30T05:52:29;92800.00;;;11.35;100.00
59367;BME280;45163;47.690;11.770;2023-08-30T05:54:55;92798.97;;;11.42;100.00
59367;BME280;45163;47.690;11.770;2023-08-30T05:57:21;92794.25;;;11.52;100.00
59367;BME280;45163;47.690;11.770;2023-08-30T05:59:48;92796.66;;;11.40;100.00
59367;BME280;45163;47.690;11.770;2023-08-30T06:02:14;92791.38;;;11.46;100.00
59367;BME280;45163;47.690;11.770;2023-08-30T06:04:39;92798.22;;;11.60;100.00
59367;BME280;45163;47.690;11.770;2023-08-30T06:07:06;92799.75;;;11.70;100.00
59367;BME280;45163;47.690;11.770;2023-08-30T06:09:32;92797.19;;;11.76;100.00
59367;BME280;45163;47.690;11.770;2023-08-30T06:11:58;92804.19;;;11.77;100.00
59367;BME280;45163;47.690;11.770;2023-08-30T06:14:24;92804.03;;;11.80;100.00
59367;BME280;45163;47.690;11.770;2023-08-30T06:16:50;92798.84;;;11.73;100.00
59367;BME280;45163;47.690;11.770;2023-08-30T06:19:16;92798.25;;;11.78;100.00
59367;BME280;45163;47.690;11.770;2023-08-30T06:21:42;92801.94;;;11.93;100.00
59367;BME280;45163;47.690;11.770;2023-08-30T06:24:08;92802.69;;;11.94;100.00
59367;BME280;45163;47.690;11.770;2023-08-30T06:26:34;92810.75;;;12.07;100.00
59367;BME280;45163;47.690;11.770;2023-08-30T06:29:00;92809.53;;;12.08;100.00
59367;BME280;45163;47.690;11.770;2023-08-30T06:31:26;92804.97;;;12.14;100.00
59367;BME280;45163;47.690;11.770;2023-08-30T06:33:53;92801.94;;;12.12;100.00
59367;BME280;45163;47.690;11.770;2023-08-30T06:36:20;92802.53;;;12.07;100.00
59367;BME280;45163;47.690;11.770;2023-08-30T06:38:49;92809.09;;;12.09;100.00
59367;BME280;45163;47.690;11.770;2023-08-30T06:41:15;92815.78;;;12.08;100.00
59367;BME280;45163;47.690;11.770;2023-08-30T06:43:40;92810.75;;;12.16;100.00
59367;BME280;45163;47.690;11.770;2023-08-30T06:46:06;92809.84;;;12.19;100.00
59367;BME280;45163;47.690;11.770;2023-08-30T06:48:32;92806.06;;;12.16;100.00
59367;BME280;45163;47.690;11.770;2023-08-30T06:50:58;92811.97;;;12.06;100.00
59367;BME280;45163;47.690;11.770;2023-08-30T06:53:28;92805.88;;;12.11;100.00
59367;BME280;45163;47.690;11.770;2023-08-30T06:55:58;92806.50;;;12.15;100.00
59367;BME280;45163;47.690;11.770;2023-08-30T06:58:24;92806.50;;;12.15;100.00
59367;BME280;45163;47.690;11.770;2023-08-30T07:00:50;92806.50;;;12.15;100.00
59367;BME280;45163;47.690;11.770;2023-08-30T07:03:16;92806.34;;;12.00;100.00
59367;BME280;45163;47.690;11.770;2023-08-30T07:05:42;92802.09;;;12.08;100.00
59367;BME280;45163;47.690;11.770;2023-08-30T07:08:14;92806.19;;;12.04;100.00
59367;BME280;45163;47.690;11.770;2023-08-30T07:10:40;92802.09;;;12.08;100.00
59367;BME280;45163;47.690;11.770;2023-08-30T07:13:06;92801.31;;;11.99;100.00
59367;BME280;45163;47.690;11.770;2023-08-30T07:15:36;92801.63;;;12.19;100.00
59367;BME280;45163;47.690;11.770;2023-08-30T07:18:03;92800.72;;;12.13;100.00
59367;BME280;45163;47.690;11.770;2023-08-30T07:20:29;92805.44;;;12.21;100.00
59367;BME280;45163;47.690;11.770;2023-08-30T07:22:55;92804.06;;;12.26;100.00
59367;BME280;45163;47.690;11.770;2023-08-30T07:25:21;92803.47;;;12.13;100.00
59367;BME280;45163;47.690;11.770;2023-08-30T07:27:47;92803.16;;;12.11;100.00
59367;BME280;45163;47.690;11.770;2023-08-30T07:30:13;92804.97;;;12.14;100.00
59367;BME280;45163;47.690;11.770;2023-08-30T07:32:40;92802.38;;;12.19;100.00
59367;BME280;45163;47.690;11.770;2023-08-30T07:35:06;92812.09;;;12.20;100.00
59367;BME280;45163;47.690;11.770;2023-08-30T07:37:33;92808.00;;;12.16;100.00
59367;BME280;45163;47.690;11.770;2023-08-30T07:39:59;92817.75;;;12.26;100.00
59367;BME280;45163;47.690;11.770;2023-08-30T07:42:25;92826.56;;;12.30;100.00
59367;BME280;45163;47.690;11.770;2023-08-30T07:44:51;92826.56;;;12.30;100.00
59367;BME280;45163;47.690;11.770;2023-08-30T07:47:17;92830.97;;;12.28;100.00
59367;BME280;45163;47.690;11.770;2023-08-30T07:49:43;92840.53;;;12.32;100.00
59367;BME280;45163;47.690;11.770;2023-08-30T07:52:09;92829.88;;;12.43;100.00
59367;BME280;45163;47.690;11.770;2023-08-30T07:54:37;92835.81;;;12.24;100.00
59367;BME280;45163;47.690;11.770;2023-08-30T07:57:04;92836.91;;;12.17;100.00
59367;BME280;45163;47.690;11.770;2023-08-30T07:59:36;92836.28;;;12.22;100.00
59367;BME280;45163;47.690;11.770;2023-08-30T08:02:06;92836.13;;;12.35;100.00
59367;BME280;45163;47.690;11.770;2023-08-30T08:04:34;92839.31;;;12.24;100.00
59367;BME280;45163;47.690;11.770;2023-08-30T08:07:02;92846.91;;;12.20;100.00
59367;BME280;45163;47.690;11.770;2023-08-30T08:09:29;92838.72;;;12.11;100.00
59367;BME280;45163;47.690;11.770;2023-08-30T08:11:55;92840.41;;;12.08;100.00
59367;BME280;45163;47.690;11.770;2023-08-30T08:14:23;92838.09;;;12.16;100.00
59367;BME280;45163;47.690;11.770;2023-08-30T08:16:49;92841.16;;;12.09;100.00
59367;BME280;45163;47.690;11.770;2023-08-30T08:19:15;92844.94;;;12.11;100.00
59367;BME280;45163;47.690;11.770;2023-08-30T08:21:41;92847.53;;;12.24;100.00
59367;BME280;45163;47.690;11.770;2023-08-30T08:24:07;92844.78;;;12.24;100.00
59367;BME280;45163;47.690;11.770;2023-08-30T08:26:33;92847.84;;;12.17;100.00
59367;BME280;45163;47.690;11.770;2023-08-30T08:28:59;92843.75;;;12.31;100.00
59367;BME280;45163;47.690;11.770;2023-08-30T08:31:25;92846.00;;;12.41;100.00
59367;BME280;45163;47.690;11.770;2023-08-30T08:34:09;92842.97;;;12.39;100.00
59367;BME280;45163;47.690;11.770;2023-08-30T08:36:40;92846.44;;;12.49;100.00
59367;BME280;45163;47.690;11.770;2023-08-30T08:39:06;92852.09;;;12.55;100.00
59367;BME280;45163;47.690;11.770;2023-08-30T08:41:39;92853.00;;;12.52;100.00
59367;BME280;45163;47.690;11.770;2023-08-30T08:44:07;92851.78;;;12.53;100.00
59367;BME280;45163;47.690;11.770;2023-08-30T08:46:38;92854.84;;;12.55;100.00
59367;BME280;45163;47.690;11.770;2023-08-30T08:49:09;92852.38;;;12.57;100.00
59367;BME280;45163;47.690;11.770;2023-08-30T08:51:36;92853.00;;;12.61;100.00
59367;BME280;45163;47.690;11.770;2023-08-30T08:54:04;92847.38;;;12.55;100.00
59367;BME280;45163;47.690;11.770;2023-08-30T08:56:31;92844.78;;;12.61;100.00
59367;BME280;45163;47.690;11.770;2023-08-30T08:58:58;92845.06;;;12.54;100.00
59367;BME280;45163;47.690;11.770;2023-08-30T09:01:25;92840.53;;;12.60;100.00
59367;BME280;45163;47.690;11.770;2023-08-30T09:03:51;92843.88;;;12.55;100.00
59367;BME280;45163;47.690;11.770;2023-08-30T09:06:18;92847.66;;;12.66;100.00
59367;BME280;45163;47.690;11.770;2023-08-30T09:08:44;92843.97;;;12.88;100.00
59367;BME280;45163;47.690;11.770;2023-08-30T09:11:10;92848.63;;;13.06;100.00
59367;BME280;45163;47.690;11.770;2023-08-30T09:13:36;92846.78;;;13.21;100.00
59367;BME280;45163;47.690;11.770;2023-08-30T09:16:02;92850.38;;;13.36;100.00
59367;BME280;45163;47.690;11.770;2023-08-30T09:18:28;92846.97;;;13.51;100.00
59367;BME280;45163;47.690;11.770;2023-08-30T09:21:10;92848.50;;;13.52;100.00
59367;BME280;45163;47.690;11.770;2023-08-30T09:23:37;92839.94;;;13.59;100.00
59367;BME280;45163;47.690;11.770;2023-08-30T09:26:04;92831.53;;;13.86;100.00
59367;BME280;45163;47.690;11.770;2023-08-30T09:28:30;92829.59;;;14.02;100.00
59367;BME280;45163;47.690;11.770;2023-08-30T09:30:59;92827.59;;;14.26;100.00
59367;BME280;45163;47.690;11.770;2023-08-30T09:33:33;92818.03;;;14.36;100.00
59367;BME280;45163;47.690;11.770;2023-08-30T09:36:00;92809.22;;;14.56;100.00
59367;BME280;45163;47.690;11.770;2023-08-30T09:38:26;92808.91;;;14.54;100.00
59367;BME280;45163;47.690;11.770;2023-08-30T09:41:05;92808.38;;;14.65;100.00
59367;BME280;45163;47.690;11.770;2023-08-30T09:43:32;92807.03;;;15.05;100.00
59367;BME280;45163;47.690;11.770;2023-08-30T09:46:03;92809.94;;;15.31;100.00
59367;BME280;45163;47.690;11.770;2023-08-30T09:48:31;92808.63;;;15.61;100.00
59367;BME280;45163;47.690;11.770;2023-08-30T09:50:58;92799.63;;;15.61;100.00
59367;BME280;45163;47.690;11.770;2023-08-30T09:53:26;92797.41;;;16.00;100.00
59367;BME280;45163;47.690;11.770;2023-08-30T09:55:56;92792.72;;;15.86;100.00
59367;BME280;45163;47.690;11.770;2023-08-30T09:58:23;92773.47;;;16.53;100.00
59367;BME280;45163;47.690;11.770;2023-08-30T10:00:51;92775.47;;;17.04;100.00
59367;BME280;45163;47.690;11.770;2023-08-30T10:03:17;92775.06;;;17.17;100.00
59367;BME280;45163;47.690;11.770;2023-08-30T10:05:44;92770.03;;;17.53;100.00
59367;BME280;45163;47.690;11.770;2023-08-30T10:08:13;92758.59;;;17.65;100.00
59367;BME280;45163;47.690;11.770;2023-08-30T10:10:39;92756.03;;;18.05;100.00
59367;BME280;45163;47.690;11.770;2023-08-30T10:13:06;92749.63;;;18.47;100.00
59367;BME280;45163;47.690;11.770;2023-08-30T10:15:33;92739.66;;;19.06;100.00
59367;BME280;45163;47.690;11.770;2023-08-30T10:18:01;92729.59;;;18.69;100.00
59367;BME280;45163;47.690;11.770;2023-08-30T10:20:28;92731.34;;;18.72;100.00
59367;BME280;45163;47.690;11.770;2023-08-30T10:22:56;92725.34;;;19.13;100.00
59367;BME280;45163;47.690;11.770;2023-08-30T10:25:26;92716.75;;;19.61;100.00
59367;BME280;45163;47.690;11.770;2023-08-30T10:27:55;92701.41;;;19.38;100.00
59367;BME280;45163;47.690;11.770;2023-08-30T10:30:22;92714.53;;;19.32;100.00
59367;BME280;45163;47.690;11.770;2023-08-30T10:32:49;92705.38;;;19.59;100.00
59367;BME280;45163;47.690;11.770;2023-08-30T10:35:18;92703.63;;;19.73;100.00
59367;BME280;45163;47.690;11.770;2023-08-30T10:37:59;92698.16;;;20.97;100.00
59367;BME280;45163;47.690;11.770;2023-08-30T10:40:25;92702.84;;;21.68;100.00
59367;BME280;45163;47.690;11.770;2023-08-30T10:43:04;92698.84;;;21.39;100.00
59367;BME280;45163;47.690;11.770;2023-08-30T10:45:30;92696.31;;;21.66;100.00
59367;BME280;45163;47.690;11.770;2023-08-30T10:47:57;92700.03;;;22.17;100.00
59367;BME280;45163;47.690;11.770;2023-08-30T10:50:31;92686.25;;;23.00;100.00
59367;BME280;45163;47.690;11.770;2023-08-30T10:52:58;92694.16;;;22.96;100.00
59367;BME280;45163;47.690;11.770;2023-08-30T10:55:24;92687.25;;;22.84;100.00
59367;BME280;45163;47.690;11.770;2023-08-30T10:58:01;92681.72;;;23.29;100.00
59367;BME280;45163;47.690;11.770;2023-08-30T11:00:29;92682.28;;;23.41;100.00
59367;BME280;45163;47.690;11.770;2023-08-30T11:02:56;92691.97;;;24.80;100.00
59367;BME280;45163;47.690;11.770;2023-08-30T11:05:26;92682.94;;;24.27;100.00
59367;BME280;45163;47.690;11.770;2023-08-30T11:07:53;92682.19;;;23.47;100.00
59367;BME280;45163;47.690;11.770;2023-08-30T11:10:20;92682.34;;;23.81;100.00
59367;BME280;45163;47.690;11.770;2023-08-30T11:12:47;92674.47;;;24.19;86.75
59367;BME280;45163;47.690;11.770;2023-08-30T11:15:15;92680.03;;;22.00;100.00
59367;BME280;45163;47.690;11.770;2023-08-30T11:17:42;92679.69;;;22.47;100.00
59367;BME280;45163;47.690;11.770;2023-08-30T11:22:43;92676.66;;;23.15;100.00
59367;BME280;45163;47.690;11.770;2023-08-30T11:25:11;92679.22;;;22.43;100.00
59367;BME280;45163;47.690;11.770;2023-08-30T11:27:38;92677.19;;;21.81;100.00
59367;BME280;45163;47.690;11.770;2023-08-30T11:30:05;92673.25;;;21.95;92.89
59367;BME280;45163;47.690;11.770;2023-08-30T11:32:33;92675.91;;;21.82;87.00
59367;BME280;45163;47.690;11.770;2023-08-30T11:35:00;92674.59;;;21.88;100.00
59367;BME280;45163;47.690;11.770;2023-08-30T11:37:27;92670.66;;;21.29;100.00
59367;BME280;45163;47.690;11.770;2023-08-30T11:39:55;92676.16;;;21.05;100.00
59367;BME280;45163;47.690;11.770;2023-08-30T11:42:21;92669.00;;;20.08;99.73
59367;BME280;45163;47.690;11.770;2023-08-30T11:44:47;92673.78;;;20.54;100.00
59367;BME280;45163;47.690;11.770;2023-08-30T11:47:22;92672.31;;;20.42;100.00
59367;BME280;45163;47.690;11.770;2023-08-30T11:49:49;92665.31;;;21.07;100.00
59367;BME280;45163;47.690;11.770;2023-08-30T11:52:18;92672.75;;;20.57;100.00
59367;BME280;45163;47.690;11.770;2023-08-30T11:54:48;92664.53;;;20.40;100.00
59367;BME280;45163;47.690;11.770;2023-08-30T11:57:15;92667.63;;;21.27;100.00
59367;BME280;45163;47.690;11.770;2023-08-30T11:59:41;92666.25;;;21.45;100.00
59367;BME280;45163;47.690;11.770;2023-08-30T12:02:07;92666.31;;;22.45;96.13
59367;BME280;45163;47.690;11.770;2023-08-30T12:04:40;92669.38;;;22.60;94.61
59367;BME280;45163;47.690;11.770;2023-08-30T12:07:06;92670.69;;;22.73;100.00
59367;BME280;45163;47.690;11.770;2023-08-30T12:09:32;92666.38;;;21.77;99.31
59367;BME280;45163;47.690;11.770;2023-08-30T12:12:11;92659.59;;;20.94;96.19
59367;BME280;45163;47.690;11.770;2023-08-30T12:14:37;92661.72;;;20.46;100.00
59367;BME280;45163;47.690;11.770;2023-08-30T12:17:04;92654.13;;;20.52;100.00
59367;BME280;45163;47.690;11.770;2023-08-30T12:19:31;92661.09;;;20.23;100.00
59367;BME280;45163;47.690;11.770;2023-08-30T12:22:06;92660.34;;;19.64;100.00
59367;BME280;45163;47.690;11.770;2023-08-30T12:24:45;92657.84;;;19.50;100.00
59367;BME280;45163;47.690;11.770;2023-08-30T12:27:15;92661.22;;;19.09;100.00
59367;BME280;45163;47.690;11.770;2023-08-30T12:29:41;92657.19;;;19.15;100.00
59367;BME280;45163;47.690;11.770;2023-08-30T12:32:07;92660.44;;;19.14;100.00
59367;BME280;45163;47.690;11.770;2023-08-30T12:34:34;92654.66;;;19.17;100.00
59367;BME280;45163;47.690;11.770;2023-08-30T12:37:01;92660.44;;;19.25;100.00
59367;BME280;45163;47.690;11.770;2023-08-30T12:39:28;92650.63;;;19.24;100.00
59367;BME280;45163;47.690;11.770;2023-08-30T12:41:55;92657.16;;;19.27;100.00
59367;BME280;45163;47.690;11.770;2023-08-30T12:44:21;92653.31;;;19.69;100.00